createdAt,value
2019-01-02T00:01:41.833Z,80.19
2019-01-02T00:04:11.201Z,80.71
2019-01-02T00:06:40.274Z,80.19
2019-01-02T00:09:09.670Z,81.32
2019-01-02T00:11:38.751Z,82.42
2019-01-02T00:14:07.854Z,81.11
2019-01-02T00:16:36.927Z,81.87
2019-01-02T00:19:06.031Z,82.52
2019-01-02T00:21:35.379Z,81.84
2019-01-02T00:24:04.495Z,82.11
2019-01-02T00:26:33.946Z,82.65
2019-01-02T00:29:03.028Z,82.94
2019-01-02T00:31:32.407Z,82.99
2019-01-02T00:34:01.478Z,83.87
2019-01-02T00:36:30.575Z,83.64
2019-01-02T00:38:59.650Z,83.99
2019-01-02T00:41:28.749Z,84.45
2019-01-02T00:43:57.821Z,83.66
2019-01-02T00:46:26.920Z,84.66
2019-01-02T00:48:55.997Z,85.00
2019-01-02T00:51:25.099Z,83.88
2019-01-02T00:53:54.464Z,84.13
2019-01-02T00:56:23.562Z,84.75
2019-01-02T00:58:52.935Z,83.90
2019-01-02T01:01:22.030Z,83.87
2019-01-02T01:03:51.287Z,83.36
2019-01-02T01:06:20.383Z,83.48
2019-01-02T01:08:49.459Z,83.71
2019-01-02T01:11:18.549Z,83.13
2019-01-02T01:13:47.619Z,82.98
2019-01-02T01:16:16.695Z,82.24
2019-01-02T01:18:45.790Z,82.18
2019-01-02T01:21:14.866Z,82.03
2019-01-02T01:23:43.961Z,82.75
2019-01-02T01:26:13.040Z,83.53
2019-01-02T01:28:42.315Z,84.16
2019-01-02T01:31:11.395Z,84.04
2019-01-02T01:33:40.499Z,84.88
2019-01-02T01:36:09.856Z,84.46
2019-01-02T01:38:39.494Z,84.63
2019-01-02T01:41:08.567Z,84.21
2019-01-02T01:43:37.939Z,83.05
2019-01-02T01:46:07.015Z,83.70
2019-01-02T01:48:36.534Z,82.67
2019-01-02T01:51:05.606Z,83.30
2019-01-02T01:53:34.705Z,83.58
2019-01-02T01:56:04.186Z,83.28
2019-01-02T01:58:33.306Z,82.86
2019-01-02T02:01:02.657Z,82.79
2019-01-02T02:03:31.753Z,82.84
2019-01-02T02:06:00.832Z,82.57
2019-01-02T02:08:30.103Z,83.40
2019-01-02T02:10:59.183Z,82.86
2019-01-02T02:13:28.277Z,82.94
2019-01-02T02:15:57.380Z,82.90
2019-01-02T02:18:26.470Z,82.43
2019-01-02T02:20:55.865Z,82.12
2019-01-02T02:23:24.922Z,82.39
2019-01-02T02:25:53.998Z,82.21
2019-01-02T02:28:23.099Z,81.89
2019-01-02T02:30:52.179Z,81.20
2019-01-02T02:33:21.556Z,81.33
2019-01-02T02:35:50.904Z,81.28
2019-01-02T02:38:20.380Z,81.20
2019-01-02T02:40:49.735Z,80.83
2019-01-02T02:43:18.807Z,80.75
2019-01-02T02:45:47.926Z,80.55
2019-01-02T02:48:17.275Z,80.43
2019-01-02T02:50:46.650Z,80.68
2019-01-02T02:53:15.901Z,80.05
2019-01-02T02:55:45.734Z,80.53
2019-01-02T02:58:15.005Z,80.64
2019-01-02T03:00:44.372Z,79.74
2019-01-02T03:03:13.713Z,79.35
2019-01-02T03:05:42.809Z,79.36
2019-01-02T03:08:11.878Z,78.91
2019-01-02T03:10:41.155Z,78.87
2019-01-02T03:13:10.498Z,79.51
2019-01-02T03:15:39.875Z,78.84
2019-01-02T03:18:09.220Z,79.41
2019-01-02T03:20:38.330Z,79.27
2019-01-02T03:23:07.410Z,78.81
2019-01-02T03:25:37.838Z,78.75
2019-01-02T03:28:07.198Z,78.92
2019-01-02T03:30:36.572Z,78.88
2019-01-02T03:33:05.918Z,77.26
2019-01-02T03:35:35.013Z,77.87
2019-01-02T03:38:04.095Z,78.45
2019-01-02T03:40:33.188Z,78.18
2019-01-02T03:43:02.264Z,78.02
2019-01-02T03:45:31.362Z,78.64
2019-01-02T03:48:00.441Z,78.01
2019-01-02T03:50:29.533Z,78.12
2019-01-02T03:52:58.602Z,78.74
2019-01-02T03:55:27.700Z,79.20
2019-01-02T03:57:56.798Z,79.57
2019-01-02T04:00:25.886Z,78.92
2019-01-02T04:02:54.960Z,79.02
2019-01-02T04:05:25.327Z,79.13
2019-01-02T04:08:06.047Z,78.35
2019-01-02T04:10:35.139Z,78.39
2019-01-02T04:13:04.212Z,78.79
2019-01-02T04:15:33.305Z,77.99
2019-01-02T04:18:02.378Z,77.87
2019-01-02T04:20:31.476Z,77.34
2019-01-02T04:23:00.553Z,77.58
2019-01-02T04:25:29.645Z,78.58
2019-01-02T04:27:58.713Z,79.43
2019-01-02T04:30:27.806Z,79.49
2019-01-02T04:32:56.888Z,80.10
2019-01-02T04:35:25.986Z,80.59
2019-01-02T04:37:55.067Z,81.05
2019-01-02T04:40:24.163Z,81.48
2019-01-02T04:42:53.240Z,81.71
2019-01-02T04:45:22.336Z,81.73
2019-01-02T04:47:51.407Z,80.86
2019-01-02T04:50:20.499Z,81.16
2019-01-02T04:52:49.568Z,81.14
2019-01-02T04:55:18.657Z,80.85
2019-01-02T04:57:47.778Z,81.81
2019-01-02T05:00:18.036Z,82.00
2019-01-02T05:02:47.162Z,82.83
2019-01-02T05:05:16.239Z,83.69
2019-01-02T05:07:45.326Z,84.15
2019-01-02T05:10:15.063Z,84.53
2019-01-02T05:12:44.191Z,84.29
2019-01-02T05:15:14.020Z,84.37
2019-01-02T05:17:43.114Z,84.87
2019-01-02T05:20:14.433Z,84.88
2019-01-02T05:22:43.551Z,84.59
2019-01-02T05:25:12.625Z,84.92
2019-01-02T05:27:41.717Z,84.58
2019-01-02T05:30:13.478Z,84.68
2019-01-02T05:32:42.578Z,84.42
2019-01-02T05:35:11.661Z,84.30
2019-01-02T05:37:40.905Z,84.78
2019-01-02T05:40:12.729Z,85.06
2019-01-02T05:42:41.857Z,84.91
2019-01-02T05:45:10.934Z,85.40
2019-01-02T05:47:40.038Z,85.53
2019-01-02T05:50:09.229Z,85.23
2019-01-02T05:52:38.327Z,85.68
2019-01-02T05:55:07.418Z,85.78
2019-01-02T05:57:36.542Z,85.47
2019-01-02T06:00:06.390Z,85.48
2019-01-02T06:02:35.482Z,85.59
2019-01-02T06:05:04.667Z,86.02
2019-01-02T06:07:33.771Z,85.15
2019-01-02T06:10:02.896Z,85.39
2019-01-02T06:12:31.932Z,85.53
2019-01-02T06:15:01.018Z,85.65
2019-01-02T06:17:30.118Z,85.33
2019-01-02T06:19:59.187Z,85.17
2019-01-02T06:22:28.287Z,85.16
2019-01-02T06:24:57.353Z,85.13
2019-01-02T06:27:26.441Z,85.86
2019-01-02T06:29:55.513Z,86.01
2019-01-02T06:32:24.609Z,86.17
2019-01-02T06:34:53.687Z,86.12
2019-01-02T06:37:22.782Z,85.66
2019-01-02T06:39:51.854Z,86.05
2019-01-02T06:42:21.007Z,85.75
2019-01-02T06:44:50.074Z,85.69
2019-01-02T06:47:19.182Z,85.88
2019-01-02T06:49:48.271Z,86.37
2019-01-02T06:52:17.377Z,86.87
2019-01-02T06:54:46.459Z,86.54
2019-01-02T06:57:15.573Z,86.62
2019-01-02T06:59:44.644Z,85.94
2019-01-02T07:02:13.744Z,85.67
2019-01-02T07:04:42.815Z,86.24
2019-01-02T07:07:11.898Z,86.04
2019-01-02T07:09:40.999Z,85.68
2019-01-02T07:12:10.092Z,85.90
2019-01-02T07:14:39.190Z,85.42
2019-01-02T07:17:08.268Z,85.48
2019-01-02T07:19:37.359Z,85.86
2019-01-02T07:22:06.435Z,86.18
2019-01-02T07:24:35.526Z,85.43
2019-01-02T07:27:04.601Z,85.58
2019-01-02T07:29:33.694Z,85.41
2019-01-02T07:32:02.770Z,86.25
2019-01-02T07:35:14.462Z,86.81
2019-01-02T07:38:18.022Z,86.68
2019-01-02T07:41:25.271Z,86.25
2019-01-02T07:44:20.235Z,85.77
2019-01-02T07:47:16.559Z,85.26
2019-01-02T07:50:31.534Z,85.31
2019-01-02T07:53:18.598Z,85.46
2019-01-02T07:56:30.370Z,85.18
2019-01-02T07:59:28.335Z,85.34
2019-01-02T08:02:22.234Z,85.37
2019-01-02T08:05:18.431Z,86.10
2019-01-02T08:08:12.036Z,86.45
2019-01-02T08:11:16.490Z,86.02
2019-01-02T08:14:41.623Z,86.18
2019-01-02T08:17:36.151Z,85.91
2019-01-02T08:20:51.907Z,86.29
2019-01-02T08:24:20.543Z,87.12
2019-01-02T08:27:37.346Z,87.21
2019-01-02T08:30:30.347Z,86.76
2019-01-02T08:33:55.792Z,85.68
2019-01-02T08:37:17.662Z,83.95
2019-01-02T08:40:30.506Z,78.58
2019-01-02T08:43:30.982Z,79.83
2019-01-02T08:46:41.843Z,81.83
2019-01-02T08:49:50.774Z,82.90
2019-01-02T08:53:05.983Z,83.83
2019-01-02T08:56:16.109Z,84.20
2019-01-02T08:58:53.935Z,84.52
2019-01-02T09:02:08.446Z,84.22
2019-01-02T09:05:17.392Z,84.64
2019-01-02T09:08:15.388Z,84.71
2019-01-02T09:11:28.262Z,85.36
2019-01-02T09:14:44.228Z,85.87
2019-01-02T09:17:43.985Z,86.66
2019-01-02T09:20:33.514Z,85.99
2019-01-02T09:23:47.931Z,86.93
2019-01-02T09:26:55.578Z,87.83
2019-01-02T09:30:05.835Z,88.49
2019-01-02T09:33:18.499Z,89.40
2019-01-02T09:36:36.185Z,89.24
2019-01-02T09:40:00.042Z,89.35
2019-01-02T09:43:15.007Z,88.34
2019-01-02T09:46:19.500Z,87.95
2019-01-02T09:49:12.938Z,85.88
2019-01-02T09:52:28.556Z,84.42
2019-01-02T09:55:44.622Z,84.35
2019-01-02T09:58:39.294Z,84.22
2019-01-02T10:01:52.467Z,84.17
2019-01-02T10:04:59.719Z,83.55
2019-01-02T10:08:27.991Z,76.80
2019-01-02T10:11:40.754Z,77.06
2019-01-02T10:14:49.921Z,69.73
2019-01-02T10:17:56.412Z,55.30
2019-01-02T10:20:43.868Z,55.55
2019-01-02T10:23:37.974Z,66.78
2019-01-02T10:26:43.562Z,74.67
2019-01-02T10:29:58.338Z,76.23
2019-01-02T10:33:18.895Z,78.30
2019-01-02T10:36:10.544Z,80.40
2019-01-02T10:39:20.606Z,80.72
2019-01-02T10:42:21.902Z,80.80
2019-01-02T10:45:26.464Z,81.18
2019-01-02T10:48:05.050Z,80.58
2019-01-02T10:51:04.795Z,78.46
2019-01-02T10:53:54.967Z,77.83
2019-01-02T10:56:54.426Z,78.44
2019-01-02T11:00:19.718Z,79.58
2019-01-02T11:03:29.405Z,79.45
2019-01-02T11:06:27.790Z,78.77
2019-01-02T11:09:26.221Z,78.25
2019-01-02T11:12:35.590Z,76.21
2019-01-02T11:15:36.427Z,76.36
2019-01-02T11:18:46.503Z,77.52
2019-01-02T11:21:47.953Z,77.32
2019-01-02T11:25:10.867Z,75.80
2019-01-02T11:28:35.522Z,77.55
2019-01-02T11:31:47.350Z,78.84
2019-01-02T11:34:52.031Z,78.55
2019-01-02T11:38:17.096Z,79.49
2019-01-02T11:41:10.524Z,79.41
2019-01-02T11:44:21.122Z,76.26
2019-01-02T11:46:46.012Z,74.56
2019-01-02T11:49:15.091Z,71.86
2019-01-02T11:51:44.542Z,66.98
2019-01-02T11:54:13.624Z,71.70
2019-01-02T11:56:42.729Z,76.48
2019-01-02T11:59:11.842Z,77.20
2019-01-02T12:01:40.947Z,80.27
2019-01-02T12:04:10.022Z,84.61
2019-01-02T12:06:39.119Z,88.72
2019-01-02T12:09:09.342Z,90.18
2019-01-02T12:11:38.443Z,91.95
2019-01-02T12:14:07.784Z,92.18
2019-01-02T12:16:36.883Z,92.25
2019-01-02T12:19:05.963Z,91.86
2019-01-02T12:21:35.375Z,92.03
2019-01-02T12:24:04.551Z,91.53
2019-01-02T12:26:33.649Z,91.91
2019-01-02T12:29:02.726Z,90.97
2019-01-02T12:31:31.817Z,90.42
2019-01-02T12:34:00.896Z,67.58
2019-01-02T12:36:29.996Z,52.30
2019-01-02T12:38:59.082Z,48.30
2019-01-02T12:41:28.173Z,44.66
2019-01-02T12:43:57.268Z,47.88
2019-01-02T12:46:26.350Z,45.35
2019-01-02T12:48:55.452Z,48.39
2019-01-02T12:51:24.528Z,45.13
2019-01-02T12:53:53.626Z,44.27
2019-01-02T12:56:22.715Z,41.79
2019-01-02T12:58:51.863Z,41.40
2019-01-02T13:01:30.225Z,43.26
2019-01-02T13:04:33.035Z,42.95
2019-01-02T13:07:31.513Z,41.97
2019-01-02T13:10:26.140Z,40.51
2019-01-02T13:13:29.771Z,44.89
2019-01-02T13:16:21.563Z,48.23
2019-01-02T13:19:36.435Z,54.78
2019-01-02T13:22:50.994Z,61.69
2019-01-02T13:25:49.941Z,66.30
2019-01-02T13:29:00.297Z,67.83
2019-01-02T13:32:13.098Z,66.98
2019-01-02T13:35:06.368Z,53.05
2019-01-02T13:38:23.666Z,48.87
2019-01-02T13:41:39.389Z,56.53
2019-01-02T13:44:32.347Z,64.58
2019-01-02T13:47:23.778Z,70.21
2019-01-02T13:50:21.033Z,71.28
2019-01-02T13:52:50.261Z,72.50
2019-01-02T13:55:20.820Z,61.43
2019-01-02T13:57:49.917Z,50.39
2019-01-02T14:00:19.012Z,45.16
2019-01-02T14:02:48.144Z,42.59
2019-01-02T14:05:20.632Z,43.87
2019-01-02T14:07:49.716Z,45.50
2019-01-02T14:10:18.822Z,48.68
2019-01-02T14:12:47.916Z,53.35
2019-01-02T14:15:17.028Z,61.46
2019-01-02T14:17:46.097Z,64.50
2019-01-02T14:20:15.195Z,68.99
2019-01-02T14:22:44.268Z,70.33
2019-01-02T14:25:13.368Z,70.79
2019-01-02T14:27:42.446Z,72.36
2019-01-02T14:30:11.546Z,72.91
2019-01-02T14:32:40.623Z,68.52
2019-01-02T14:35:09.717Z,67.67
2019-01-02T14:37:38.791Z,68.18
2019-01-02T14:40:07.922Z,70.81
2019-01-02T14:42:37.001Z,72.65
2019-01-02T14:45:06.848Z,74.19
2019-01-02T14:47:35.939Z,75.22
2019-01-02T14:50:05.586Z,76.78
2019-01-02T14:52:34.670Z,75.95
2019-01-02T14:55:03.868Z,77.22
2019-01-02T14:57:32.966Z,77.39
2019-01-02T15:00:02.060Z,78.43
2019-01-02T15:02:31.148Z,78.80
2019-01-02T15:05:00.294Z,76.99
2019-01-02T15:07:29.321Z,77.14
2019-01-02T15:09:59.345Z,78.14
2019-01-02T15:12:28.479Z,78.14
2019-01-02T15:14:57.581Z,79.16
2019-01-02T15:17:26.649Z,81.13
2019-01-02T15:19:55.726Z,82.32
2019-01-02T15:22:24.823Z,82.67
2019-01-02T15:24:53.894Z,82.67
2019-01-02T15:27:22.989Z,82.92
2019-01-02T15:29:52.060Z,82.62
2019-01-02T15:32:21.164Z,81.95
2019-01-02T15:34:50.240Z,82.06
2019-01-02T15:37:19.335Z,82.05
2019-01-02T15:39:48.414Z,81.58
2019-01-02T15:42:17.521Z,82.10
2019-01-02T15:44:46.596Z,83.03
2019-01-02T15:47:15.697Z,82.86
2019-01-02T15:49:44.774Z,82.55
2019-01-02T15:52:13.882Z,82.71
2019-01-02T15:54:42.971Z,82.43
2019-01-02T15:57:12.086Z,82.52
2019-01-02T15:59:41.203Z,82.68
2019-01-02T16:02:10.311Z,82.56
2019-01-02T16:04:41.133Z,82.09
2019-01-02T16:07:10.359Z,81.67
2019-01-02T16:09:39.442Z,81.59
2019-01-02T16:12:08.553Z,81.38
2019-01-02T16:14:37.605Z,82.63
2019-01-02T16:17:06.698Z,82.83
2019-01-02T16:19:35.769Z,82.79
2019-01-02T16:22:04.864Z,82.93
2019-01-02T16:24:33.930Z,82.37
2019-01-02T16:27:03.044Z,82.00
2019-01-02T16:29:32.107Z,81.95
2019-01-02T16:32:01.203Z,81.02
2019-01-02T16:34:30.282Z,81.11
2019-01-02T16:36:59.378Z,81.08
2019-01-02T16:39:28.463Z,80.91
2019-01-02T16:41:57.806Z,80.83
2019-01-02T16:44:26.992Z,80.42
2019-01-02T16:46:56.066Z,80.40
2019-01-02T16:49:25.158Z,80.21
2019-01-02T16:51:54.254Z,80.41
2019-01-02T16:54:23.327Z,79.66
2019-01-02T16:57:11.464Z,79.65
2019-01-02T16:59:40.558Z,80.97
2019-01-02T17:02:09.624Z,81.11
2019-01-02T17:04:38.713Z,81.74
2019-01-02T17:07:07.817Z,81.93
2019-01-02T17:09:36.884Z,83.10
2019-01-02T17:12:05.954Z,81.15
2019-01-02T17:14:35.042Z,81.36
2019-01-02T17:17:04.119Z,82.96
2019-01-02T17:19:33.211Z,83.41
2019-01-02T17:22:02.306Z,85.27
2019-01-02T17:24:31.416Z,86.21
2019-01-02T17:27:00.479Z,86.30
2019-01-02T17:29:29.579Z,87.62
2019-01-02T17:31:58.654Z,87.29
2019-01-02T17:34:27.764Z,87.01
2019-01-02T17:36:56.851Z,87.56
2019-01-02T17:39:25.947Z,86.82
2019-01-02T17:41:55.026Z,88.45
2019-01-02T17:44:24.122Z,88.11
2019-01-02T17:46:53.205Z,88.34
2019-01-02T17:49:22.301Z,87.91
2019-01-02T17:51:51.375Z,88.55
2019-01-02T17:54:20.477Z,89.01
2019-01-02T17:56:49.547Z,88.97
2019-01-02T17:59:18.671Z,87.43
2019-01-02T18:01:47.753Z,87.55
2019-01-02T18:04:17.165Z,86.18
2019-01-02T18:06:46.238Z,85.80
2019-01-02T18:09:15.334Z,86.73
2019-01-02T18:11:44.416Z,86.01
2019-01-02T18:14:13.511Z,86.57
2019-01-02T18:16:42.587Z,85.43
2019-01-02T18:19:11.695Z,85.84
2019-01-02T18:21:40.770Z,87.35
2019-01-02T18:24:09.862Z,87.29
2019-01-02T18:26:38.934Z,87.95
2019-01-02T18:29:08.032Z,88.78
2019-01-02T18:31:37.108Z,87.81
2019-01-02T18:34:06.202Z,86.39
2019-01-02T18:36:35.276Z,87.54
2019-01-02T18:39:06.415Z,88.31
2019-01-02T18:41:35.498Z,89.38
2019-01-02T18:44:04.597Z,90.47
2019-01-02T18:46:33.682Z,89.51
2019-01-02T18:49:02.800Z,89.07
2019-01-02T18:51:31.876Z,89.21
2019-01-02T18:54:00.957Z,90.45
2019-01-02T18:56:30.059Z,91.32
2019-01-02T18:58:59.167Z,91.41
2019-01-02T19:01:28.265Z,92.15
2019-01-02T19:03:57.339Z,91.87
2019-01-02T19:06:26.436Z,92.05
2019-01-02T19:08:55.515Z,90.55
2019-01-02T19:11:24.617Z,90.57
2019-01-02T19:13:53.686Z,90.93
2019-01-02T19:16:22.786Z,91.61
2019-01-02T19:18:51.907Z,92.02
2019-01-02T19:21:21.008Z,92.72
2019-01-02T19:23:50.089Z,92.82
2019-01-02T19:26:19.195Z,93.00
2019-01-02T19:28:48.272Z,93.81
2019-01-02T19:31:17.371Z,93.44
2019-01-02T19:33:46.446Z,91.65
2019-01-02T19:36:15.554Z,91.59
2019-01-02T19:38:44.625Z,92.64
2019-01-02T19:41:13.723Z,92.03
2019-01-02T19:43:42.800Z,92.54
2019-01-02T19:46:11.907Z,92.98
2019-01-02T19:48:40.987Z,91.36
2019-01-02T19:51:10.082Z,90.72
2019-01-02T19:53:39.160Z,89.77
2019-01-02T19:56:08.257Z,89.75
2019-01-02T19:58:37.367Z,90.04
2019-01-02T20:01:06.450Z,88.84
2019-01-02T20:03:35.547Z,87.80
2019-01-02T20:06:04.619Z,88.64
2019-01-02T20:08:34.605Z,88.89
2019-01-02T20:11:03.716Z,87.70
2019-01-02T20:13:32.815Z,88.53
2019-01-02T20:16:01.902Z,88.37
2019-01-02T20:18:31.013Z,88.79
2019-01-02T20:21:00.087Z,88.86
2019-01-02T20:23:29.194Z,88.64
2019-01-02T20:25:58.272Z,88.75
2019-01-02T20:28:27.366Z,88.81
2019-01-02T20:30:56.448Z,88.64
2019-01-02T20:33:25.543Z,88.25
2019-01-02T20:35:54.620Z,86.99
2019-01-02T20:38:23.719Z,86.42
2019-01-02T20:40:52.812Z,86.72
2019-01-02T20:43:21.894Z,88.02
2019-01-02T20:45:50.983Z,89.03
2019-01-02T20:48:20.086Z,89.85
2019-01-02T20:50:49.163Z,89.49
2019-01-02T20:53:18.263Z,89.15
2019-01-02T20:55:47.349Z,87.41
2019-01-02T20:58:16.502Z,87.80
2019-01-02T21:00:45.607Z,88.37
2019-01-02T21:03:14.631Z,88.78
2019-01-02T21:05:43.713Z,88.20
2019-01-02T21:08:12.791Z,89.11
2019-01-02T21:10:41.895Z,88.44
2019-01-02T21:13:10.975Z,88.46
2019-01-02T21:15:40.076Z,88.54
2019-01-02T21:18:09.152Z,89.40
2019-01-02T21:20:38.257Z,89.39
2019-01-02T21:23:07.336Z,89.89
2019-01-02T21:25:36.449Z,90.08
2019-01-02T21:28:05.564Z,90.44
2019-01-02T21:30:34.677Z,90.58
2019-01-02T21:33:03.759Z,90.29
2019-01-02T21:35:32.871Z,91.11
2019-01-02T21:38:01.950Z,91.93
2019-01-02T21:40:31.060Z,91.61
2019-01-02T21:43:00.139Z,91.59
2019-01-02T21:45:29.247Z,92.37
2019-01-02T21:47:58.330Z,92.92
2019-01-02T21:50:27.431Z,93.55
2019-01-02T21:52:56.515Z,94.05
2019-01-02T21:55:25.650Z,94.08
2019-01-02T21:57:54.725Z,94.19
2019-01-02T22:00:23.824Z,94.21
2019-01-02T22:02:52.908Z,94.38
2019-01-02T22:05:22.010Z,94.14
2019-01-02T22:07:51.099Z,93.69
2019-01-02T22:10:20.195Z,93.72
2019-01-02T22:12:49.268Z,93.70
2019-01-02T22:15:18.371Z,93.71
2019-01-02T22:17:47.458Z,93.75
2019-01-02T22:20:16.551Z,94.07
2019-01-02T22:22:45.636Z,94.66
2019-01-02T22:25:14.744Z,94.76
2019-01-02T22:27:43.823Z,95.00
2019-01-02T22:30:12.918Z,94.63
2019-01-02T22:32:42.002Z,94.25
2019-01-02T22:35:11.103Z,93.96
2019-01-02T22:37:40.177Z,93.97
2019-01-02T22:40:09.395Z,94.10
2019-01-02T22:42:38.471Z,94.62
2019-01-02T22:45:07.683Z,95.07
2019-01-02T22:47:36.763Z,95.42
2019-01-02T22:50:07.684Z,95.14
2019-01-02T22:52:36.760Z,95.38
2019-01-02T22:55:05.982Z,95.78
2019-01-02T22:57:35.084Z,95.98
2019-01-02T23:00:04.483Z,95.60
2019-01-02T23:06:00.861Z,95.68
2019-01-02T23:08:48.898Z,95.81
2019-01-02T23:11:46.212Z,96.37
2019-01-02T23:14:34.262Z,96.96
2019-01-02T23:17:25.498Z,97.22
2019-01-02T23:20:20.365Z,97.65
2019-01-02T23:23:14.296Z,97.54
2019-01-02T23:26:01.047Z,96.82
2019-01-02T23:28:58.309Z,97.02
2019-01-02T23:31:45.084Z,97.18
2019-01-02T23:34:31.920Z,97.04
2019-01-02T23:37:18.657Z,97.03
2019-01-02T23:40:01.998Z,97.36
2019-01-02T23:42:50.072Z,97.58
2019-01-02T23:45:36.779Z,97.73
2019-01-02T23:48:22.602Z,97.95
2019-01-02T23:51:19.938Z,97.70
2019-01-02T23:54:01.407Z,97.90
2019-01-02T23:56:48.159Z,98.34
2019-01-02T23:59:38.175Z,98.50
